SIA24A WSSS-KJFK
Flight info
| Callsign | SIA24A |
|---|---|
| Flight time | N/A |
| Altitude | 32000 |
| Route | TOMAN5B TOMAN L625 AKMON/K0954F320 L625 ANOKI/N0514F320 L625 AVMUP/N0501F350 L625 MEVIN B462 KAZIK Y59 AZAMA Y57 SUKBO/N0490F370 Y57 PUTER A590 POWAL/N0497F390 A590 HAMND DCT TED J511 GKN J124 ORT/N0498F410 DCT 63N140W 63N130W 62N120W 59N110W 5530N10000W DCT MISAX DCT SSM DCT SIKBO DCT AHPAH Q140 MEMMS PUCKY1 |
| Aircraft | A359/H-SDE2E3GHIJ3J4J5LM1ORWXY/LB1D1 |
Departure
| Time | 2026-05-06 14:18 |
|---|---|
| Airport | Singapore Changi Airport (WSSS) |
Arrival
| Time | N/A |
|---|---|
| Airport | John F. Kennedy International Airport (KJFK) |
| Time | Latitude | Longitude | Altitude | Speed | Heading |
|---|---|---|---|---|---|
| 2026-05-06 14:00 | 1.36484 | 103.99069 | 31 ft | 0 kts | 264° |
| 2026-05-06 14:09 | 1.36486 | 103.99078 | 31 ft | 4 kts | 263° |
| 2026-05-06 14:09 | 1.36488 | 103.99099 | 31 ft | 4 kts | 260° |
| 2026-05-06 14:10 | 1.36495 | 103.99125 | 29 ft | 4 kts | 244° |
| 2026-05-06 14:10 | 1.36510 | 103.99147 | 30 ft | 4 kts | 226° |
| 2026-05-06 14:10 | 1.36520 | 103.99157 | 29 ft | 0 kts | 222° |
| 2026-05-06 14:10 | 1.36519 | 103.99158 | 29 ft | 0 kts | 222° |
| 2026-05-06 14:13 | 1.36493 | 103.99158 | 31 ft | 7 kts | 156° |
| 2026-05-06 14:13 | 1.36494 | 103.99219 | 31 ft | 11 kts | 57° |
| 2026-05-06 14:13 | 1.36537 | 103.99280 | 31 ft | 10 kts | 54° |
| 2026-05-06 14:13 | 1.36578 | 103.99337 | 31 ft | 10 kts | 59° |
| 2026-05-06 14:14 | 1.36578 | 103.99412 | 31 ft | 13 kts | 108° |
| 2026-05-06 14:14 | 1.36539 | 103.99501 | 31 ft | 14 kts | 113° |
| 2026-05-06 14:14 | 1.36501 | 103.99590 | 31 ft | 14 kts | 113° |
| 2026-05-06 14:14 | 1.36463 | 103.99678 | 31 ft | 14 kts | 113° |
| 2026-05-06 14:15 | 1.36427 | 103.99764 | 31 ft | 13 kts | 112° |
| 2026-05-06 14:15 | 1.36403 | 103.99819 | 31 ft | 0 kts | 114° |
| 2026-05-06 14:15 | 1.36400 | 103.99825 | 31 ft | 6 kts | 115° |
| 2026-05-06 14:16 | 1.36319 | 103.99877 | 32 ft | 18 kts | 169° |
| 2026-05-06 14:16 | 1.36197 | 103.99890 | 33 ft | 17 kts | 181° |
| 2026-05-06 14:16 | 1.36127 | 103.99867 | 33 ft | 0 kts | 202° |
| 2026-05-06 14:17 | 1.36106 | 103.99858 | 33 ft | 13 kts | 203° |
| 2026-05-06 14:17 | 1.35892 | 103.99768 | 35 ft | 61 kts | 203° |
| 2026-05-06 14:17 | 1.35315 | 103.99525 | 37 ft | 117 kts | 202° |
| 2026-05-06 14:17 | 1.34406 | 103.99140 | 38 ft | 165 kts | 203° |
| 2026-05-06 14:18 | 1.33268 | 103.98663 | 383 ft | 179 kts | 202° |
| 2026-05-06 14:18 | 1.32131 | 103.98168 | 920 ft | 178 kts | 204° |
| 2026-05-06 14:18 | 1.31006 | 103.97642 | 1510 ft | 178 kts | 205° |
| 2026-05-06 14:18 | 1.29873 | 103.97109 | 1965 ft | 187 kts | 203° |
| 2026-05-06 14:19 | 1.28533 | 103.96930 | 2233 ft | 206 kts | 170° |
| 2026-05-06 14:19 | 1.27266 | 103.97613 | 2703 ft | 214 kts | 135° |
| 2026-05-06 14:19 | 1.26497 | 103.98900 | 3246 ft | 220 kts | 113° |
| 2026-05-06 14:19 | 1.25957 | 104.00351 | 3687 ft | 226 kts | 110° |
| 2026-05-06 14:20 | 1.25431 | 104.01868 | 3871 ft | 238 kts | 110° |
| 2026-05-06 14:20 | 1.25081 | 104.03540 | 4015 ft | 253 kts | 92° |
| 2026-05-06 14:20 | 1.25135 | 104.05336 | 4229 ft | 265 kts | 86° |
| 2026-05-06 14:20 | 1.25306 | 104.07191 | 4603 ft | 271 kts | 85° |
| 2026-05-06 14:21 | 1.25500 | 104.09075 | 5032 ft | 273 kts | 85° |
| 2026-05-06 14:21 | 1.25700 | 104.10966 | 5474 ft | 275 kts | 84° |
| 2026-05-06 14:21 | 1.25904 | 104.12873 | 5928 ft | 277 kts | 84° |
| 2026-05-06 14:21 | 1.26110 | 104.14791 | 6377 ft | 279 kts | 84° |
| 2026-05-06 14:22 | 1.26319 | 104.16725 | 6809 ft | 281 kts | 84° |
| 2026-05-06 14:22 | 1.26531 | 104.18680 | 7253 ft | 283 kts | 84° |
| 2026-05-06 14:22 | 1.26743 | 104.20636 | 7717 ft | 284 kts | 84° |
| 2026-05-06 14:22 | 1.26956 | 104.22611 | 8195 ft | 285 kts | 84° |
| 2026-05-06 14:23 | 1.27171 | 104.24587 | 8684 ft | 287 kts | 84° |
| 2026-05-06 14:23 | 1.27386 | 104.26573 | 9158 ft | 289 kts | 84° |
| 2026-05-06 14:23 | 1.27530 | 104.27902 | 9468 ft | 290 kts | 84° |
| 2026-05-06 14:23 | 1.27819 | 104.30573 | 10051 ft | 294 kts | 84° |
| 2026-05-06 14:24 | 1.27970 | 104.31962 | 10198 ft | 302 kts | 84° |
| 2026-05-06 14:24 | 1.28276 | 104.34794 | 10467 ft | 317 kts | 84° |
| 2026-05-06 14:24 | 1.28517 | 104.37018 | 10681 ft | 327 kts | 84° |
| 2026-05-06 14:24 | 1.28684 | 104.38559 | 10813 ft | 334 kts | 84° |
| 2026-05-06 14:25 | 1.29022 | 104.41680 | 11074 ft | 347 kts | 84° |
| 2026-05-06 14:25 | 1.29200 | 104.43318 | 11192 ft | 354 kts | 84° |
| 2026-05-06 14:25 | 1.29468 | 104.45791 | 11387 ft | 363 kts | 84° |
| 2026-05-06 14:25 | 1.29742 | 104.48326 | 11562 ft | 371 kts | 84° |
| 2026-05-06 14:26 | 1.30023 | 104.50920 | 11742 ft | 379 kts | 84° |
| 2026-05-06 14:26 | 1.30309 | 104.53561 | 11898 ft | 387 kts | 84° |
| 2026-05-06 14:26 | 1.30601 | 104.56258 | 12107 ft | 392 kts | 84° |
| 2026-05-06 14:26 | 1.30895 | 104.58967 | 12417 ft | 394 kts | 84° |
| 2026-05-06 14:27 | 1.31191 | 104.61702 | 12727 ft | 396 kts | 84° |
| 2026-05-06 14:27 | 1.31487 | 104.64443 | 13054 ft | 398 kts | 84° |
| 2026-05-06 14:27 | 1.31782 | 104.67166 | 13375 ft | 399 kts | 84° |
| 2026-05-06 14:27 | 1.32085 | 104.69965 | 13691 ft | 401 kts | 84° |
| 2026-05-06 14:28 | 1.32385 | 104.72736 | 13958 ft | 402 kts | 84° |
| 2026-05-06 14:28 | 1.32686 | 104.75521 | 14215 ft | 404 kts | 84° |
| 2026-05-06 14:28 | 1.32985 | 104.78285 | 14471 ft | 406 kts | 84° |
| 2026-05-06 14:28 | 1.33292 | 104.81127 | 14730 ft | 407 kts | 84° |
| 2026-05-06 14:29 | 1.33598 | 104.83952 | 15001 ft | 409 kts | 84° |
| 2026-05-06 14:29 | 1.33900 | 104.86744 | 15249 ft | 410 kts | 84° |
| 2026-05-06 14:29 | 1.34211 | 104.89621 | 15500 ft | 412 kts | 84° |
| 2026-05-06 14:29 | 1.34380 | 104.92482 | 15752 ft | 413 kts | 89° |
| 2026-05-06 14:30 | 1.34409 | 104.95355 | 15995 ft | 415 kts | 89° |
| 2026-05-06 14:30 | 1.34439 | 104.98247 | 16233 ft | 416 kts | 89° |
| 2026-05-06 14:30 | 1.34483 | 105.01103 | 16468 ft | 418 kts | 89° |
| 2026-05-06 14:30 | 1.34540 | 105.04046 | 16716 ft | 419 kts | 89° |
| 2026-05-06 14:31 | 1.34601 | 105.06924 | 16955 ft | 421 kts | 89° |
| 2026-05-06 14:31 | 1.34667 | 105.09860 | 17194 ft | 422 kts | 89° |
| 2026-05-06 14:31 | 1.34736 | 105.12795 | 17442 ft | 424 kts | 89° |
| 2026-05-06 14:31 | 1.34806 | 105.15779 | 17671 ft | 425 kts | 89° |
| 2026-05-06 14:32 | 1.34875 | 105.18702 | 17902 ft | 426 kts | 89° |
| 2026-05-06 14:32 | 1.34946 | 105.21664 | 18127 ft | 428 kts | 89° |
| 2026-05-06 14:32 | 1.35017 | 105.24647 | 18328 ft | 429 kts | 89° |
| 2026-05-06 14:32 | 1.35088 | 105.27628 | 18517 ft | 431 kts | 89° |
| 2026-05-06 14:33 | 1.35160 | 105.30628 | 18711 ft | 432 kts | 89° |
| 2026-05-06 14:33 | 1.35231 | 105.33629 | 18880 ft | 433 kts | 89° |
| 2026-05-06 14:33 | 1.35303 | 105.36649 | 19089 ft | 434 kts | 89° |
| 2026-05-06 14:33 | 1.35375 | 105.39667 | 19281 ft | 435 kts | 89° |
| 2026-05-06 14:34 | 1.35448 | 105.42693 | 19469 ft | 437 kts | 89° |
| 2026-05-06 14:34 | 1.35520 | 105.45731 | 19654 ft | 438 kts | 89° |
| 2026-05-06 14:34 | 1.35592 | 105.48774 | 19834 ft | 439 kts | 89° |
| 2026-05-06 14:34 | 1.35665 | 105.51832 | 20023 ft | 440 kts | 89° |
| 2026-05-06 14:35 | 1.35738 | 105.54890 | 20202 ft | 441 kts | 89° |
| 2026-05-06 14:35 | 1.35811 | 105.57956 | 20385 ft | 442 kts | 89° |
| 2026-05-06 14:35 | 1.35884 | 105.61031 | 20570 ft | 443 kts | 89° |
| 2026-05-06 14:35 | 1.35957 | 105.64120 | 20755 ft | 444 kts | 89° |
| 2026-05-06 14:36 | 1.36031 | 105.67214 | 20917 ft | 446 kts | 89° |
| 2026-05-06 14:36 | 1.36174 | 105.70312 | 21099 ft | 447 kts | 84° |
| 2026-05-06 14:36 | 1.36739 | 105.73367 | 21280 ft | 449 kts | 74° |
| 2026-05-06 14:36 | 1.37879 | 105.76273 | 21458 ft | 450 kts | 63° |
| 2026-05-06 14:37 | 1.39571 | 105.78906 | 21650 ft | 453 kts | 52° |
| 2026-05-06 14:37 | 1.41766 | 105.81178 | 21812 ft | 456 kts | 41° |
| 2026-05-06 14:37 | 1.44363 | 105.83000 | 22006 ft | 458 kts | 32° |
| 2026-05-06 14:37 | 1.47142 | 105.84581 | 22173 ft | 460 kts | 30° |
| 2026-05-06 14:38 | 1.49983 | 105.86060 | 22411 ft | 461 kts | 28° |
| 2026-05-06 14:38 | 1.52853 | 105.87500 | 22587 ft | 462 kts | 28° |
| 2026-05-06 14:38 | 1.55734 | 105.88937 | 22774 ft | 464 kts | 28° |
| 2026-05-06 14:38 | 1.58625 | 105.90390 | 22963 ft | 465 kts | 28° |
| 2026-05-06 14:39 | 1.61511 | 105.91857 | 23144 ft | 466 kts | 28° |
| 2026-05-06 14:39 | 1.64394 | 105.93336 | 23342 ft | 467 kts | 29° |
| 2026-05-06 14:39 | 1.67285 | 105.94828 | 23509 ft | 468 kts | 29° |
| 2026-05-06 14:39 | 1.70182 | 105.96328 | 23670 ft | 470 kts | 29° |
| 2026-05-06 14:40 | 1.73094 | 105.97838 | 23819 ft | 471 kts | 29° |
| 2026-05-06 14:40 | 1.76006 | 105.99347 | 23972 ft | 472 kts | 29° |
| 2026-05-06 14:40 | 1.78932 | 106.00864 | 24143 ft | 473 kts | 29° |
| 2026-05-06 14:40 | 1.81822 | 106.02361 | 24301 ft | 475 kts | 29° |
| 2026-05-06 14:41 | 1.84759 | 106.03882 | 24465 ft | 476 kts | 29° |
| 2026-05-06 14:41 | 1.87699 | 106.05405 | 24648 ft | 477 kts | 29° |
| 2026-05-06 14:41 | 1.90651 | 106.06933 | 24816 ft | 478 kts | 29° |
| 2026-05-06 14:41 | 1.93607 | 106.08468 | 24981 ft | 480 kts | 29° |
| 2026-05-06 14:42 | 1.96568 | 106.10002 | 25155 ft | 481 kts | 29° |
| 2026-05-06 14:42 | 1.99554 | 106.11545 | 25334 ft | 482 kts | 29° |
| 2026-05-06 14:42 | 2.02536 | 106.13085 | 25511 ft | 484 kts | 29° |
| 2026-05-06 14:42 | 2.05534 | 106.14634 | 25691 ft | 486 kts | 29° |
| 2026-05-06 14:43 | 2.08546 | 106.16190 | 25879 ft | 487 kts | 29° |
| 2026-05-06 14:43 | 2.11558 | 106.17747 | 26056 ft | 489 kts | 29° |
| 2026-05-06 14:43 | 2.14579 | 106.19310 | 26259 ft | 490 kts | 29° |
| 2026-05-06 14:43 | 2.17610 | 106.20878 | 26441 ft | 492 kts | 29° |
| 2026-05-06 14:44 | 2.20665 | 106.22459 | 26632 ft | 494 kts | 29° |
| 2026-05-06 14:44 | 2.23709 | 106.24034 | 26805 ft | 496 kts | 29° |
| 2026-05-06 14:44 | 2.26785 | 106.25625 | 27004 ft | 497 kts | 29° |
| 2026-05-06 14:45 | 2.32953 | 106.28817 | 27387 ft | 501 kts | 29° |
| 2026-05-06 14:45 | 2.36091 | 106.30441 | 27585 ft | 502 kts | 28° |
| 2026-05-06 14:45 | 2.39161 | 106.32030 | 27781 ft | 504 kts | 28° |
| 2026-05-06 14:45 | 2.42274 | 106.33641 | 27974 ft | 506 kts | 28° |
| 2026-05-06 14:46 | 2.45409 | 106.35264 | 28158 ft | 507 kts | 29° |
| 2026-05-06 14:46 | 2.48549 | 106.36889 | 28335 ft | 509 kts | 29° |
| 2026-05-06 14:46 | 2.51701 | 106.38521 | 28512 ft | 511 kts | 28° |
| 2026-05-06 14:46 | 2.54862 | 106.40157 | 28687 ft | 512 kts | 28° |
| 2026-05-06 14:47 | 2.58024 | 106.41798 | 28915 ft | 512 kts | 28° |
| 2026-05-06 14:47 | 2.61185 | 106.43438 | 29126 ft | 513 kts | 28° |
| 2026-05-06 14:47 | 2.64363 | 106.45083 | 29389 ft | 513 kts | 28° |
| 2026-05-06 14:47 | 2.67528 | 106.46721 | 29629 ft | 512 kts | 28° |
| 2026-05-06 14:48 | 2.70697 | 106.48361 | 29861 ft | 512 kts | 28° |
| 2026-05-06 14:48 | 2.73851 | 106.49993 | 30077 ft | 512 kts | 28° |
| 2026-05-06 14:48 | 2.76117 | 106.51169 | 30212 ft | 511 kts | 28° |
| 2026-05-06 14:48 | 2.79276 | 106.52809 | 30429 ft | 511 kts | 28° |
| 2026-05-06 14:49 | 2.82423 | 106.54438 | 30649 ft | 510 kts | 28° |
| 2026-05-06 14:49 | 2.85578 | 106.56072 | 30830 ft | 510 kts | 28° |
| 2026-05-06 14:49 | 2.88717 | 106.57701 | 30928 ft | 510 kts | 28° |
| 2026-05-06 14:49 | 2.91876 | 106.59334 | 31118 ft | 509 kts | 28° |
| 2026-05-06 14:50 | 2.95019 | 106.60957 | 31327 ft | 508 kts | 28° |
| 2026-05-06 14:50 | 2.98153 | 106.62576 | 31517 ft | 507 kts | 28° |
| 2026-05-06 14:50 | 3.01298 | 106.64201 | 31709 ft | 507 kts | 28° |
| 2026-05-06 14:50 | 3.04427 | 106.65820 | 31882 ft | 506 kts | 28° |
| 2026-05-06 14:51 | 3.07557 | 106.67439 | 32061 ft | 506 kts | 28° |
| 2026-05-06 14:51 | 3.10677 | 106.69055 | 32231 ft | 505 kts | 28° |
| 2026-05-06 14:51 | 3.13797 | 106.70670 | 32405 ft | 505 kts | 28° |
| 2026-05-06 14:51 | 3.16912 | 106.72283 | 32579 ft | 504 kts | 28° |
| 2026-05-06 14:52 | 3.20027 | 106.73896 | 32736 ft | 504 kts | 28° |
| 2026-05-06 14:52 | 3.23144 | 106.75510 | 32870 ft | 504 kts | 28° |
| 2026-05-06 14:52 | 3.26260 | 106.77124 | 32899 ft | 506 kts | 28° |
| 2026-05-06 14:53 | 3.32547 | 106.80381 | 32899 ft | 509 kts | 28° |
| 2026-05-06 14:53 | 3.38838 | 106.83640 | 32900 ft | 509 kts | 28° |
| 2026-05-06 14:54 | 3.45123 | 106.86895 | 32903 ft | 509 kts | 28° |
| 2026-05-06 14:54 | 3.51411 | 106.90154 | 32903 ft | 509 kts | 28° |
| 2026-05-06 14:55 | 3.57547 | 106.93662 | 32906 ft | 508 kts | 35° |
| 2026-05-06 14:55 | 3.63338 | 106.97646 | 32903 ft | 508 kts | 36° |
| 2026-05-06 14:56 | 3.69102 | 107.01727 | 32900 ft | 508 kts | 36° |
| 2026-05-06 14:56 | 3.74868 | 107.05819 | 32899 ft | 508 kts | 36° |
| 2026-05-06 14:57 | 3.80639 | 107.09902 | 32902 ft | 508 kts | 36° |
| 2026-05-06 14:57 | 3.86408 | 107.13979 | 32903 ft | 508 kts | 36° |
| 2026-05-06 14:58 | 3.92178 | 107.18054 | 32904 ft | 508 kts | 36° |
| 2026-05-06 14:58 | 3.97957 | 107.22138 | 32903 ft | 508 kts | 36° |
| 2026-05-06 14:59 | 4.03736 | 107.26222 | 32903 ft | 508 kts | 36° |
| 2026-05-06 14:59 | 4.09506 | 107.30301 | 32903 ft | 508 kts | 36° |
| 2026-05-06 15:00 | 4.15282 | 107.34384 | 32900 ft | 508 kts | 36° |
| 2026-05-06 15:00 | 4.21062 | 107.38472 | 32906 ft | 508 kts | 36° |
| 2026-05-06 15:01 | 4.26841 | 107.42559 | 32904 ft | 508 kts | 36° |
| 2026-05-06 15:01 | 4.32604 | 107.46636 | 32903 ft | 507 kts | 36° |
| 2026-05-06 15:02 | 4.38371 | 107.50716 | 32900 ft | 507 kts | 36° |
| 2026-05-06 15:02 | 4.44141 | 107.54799 | 32900 ft | 507 kts | 36° |
| 2026-05-06 15:03 | 4.49900 | 107.58876 | 32900 ft | 507 kts | 36° |
| 2026-05-06 15:03 | 4.55627 | 107.62931 | 32897 ft | 507 kts | 36° |
| 2026-05-06 15:04 | 4.61424 | 107.67035 | 32898 ft | 507 kts | 36° |
| 2026-05-06 15:04 | 4.67149 | 107.71090 | 32897 ft | 507 kts | 36° |
| 2026-05-06 15:05 | 4.72911 | 107.75172 | 32895 ft | 507 kts | 36° |
| 2026-05-06 15:05 | 4.78673 | 107.79254 | 32897 ft | 506 kts | 36° |
| 2026-05-06 15:06 | 4.84431 | 107.83335 | 32897 ft | 506 kts | 36° |
| 2026-05-06 15:06 | 4.89249 | 107.86751 | 32897 ft | 506 kts | 36° |
| 2026-05-06 15:07 | 4.95007 | 107.90833 | 32899 ft | 506 kts | 36° |
| 2026-05-06 15:07 | 5.00719 | 107.94886 | 32897 ft | 506 kts | 36° |
| 2026-05-06 15:08 | 5.05547 | 107.98284 | 32898 ft | 506 kts | 36° |
| 2026-05-06 15:08 | 5.11334 | 108.02334 | 32897 ft | 507 kts | 36° |